Time;durP1;ratioP1;P1;durP2;ratioP2;P2;SDS_P1;SDS_P2;PMS_P1;PMS_P2;Temp;Humidity;BMP_temperature;BMP_pressure;BME280_temperature;BME280_humidity;BME280_pressure;Samples;Min_cycle;Max_cycle;Signal;HPM_P1;HPM_P2
2021/07/09 00:03:02;;;;;;;8.68;2.63;;;22.70;99.90;;;;;;5071836;28;20044;-45
2021/07/09 00:06:06;;;;;;;7.80;2.50;;;22.60;99.90;;;;;;5072089;28;20044;-45
2021/07/09 00:09:11;;;;;;;6.82;2.58;;;22.50;99.90;;;;;;5071636;28;20032;-45
2021/07/09 00:12:15;;;;;;;5.03;2.65;;;22.40;99.90;;;;;;5060652;28;20040;-45
2021/07/09 00:15:19;;;;;;;8.23;2.90;;;22.30;99.90;;;;;;5051803;28;20055;-47
2021/07/09 00:18:23;;;;;;;6.70;2.70;;;22.20;99.90;;;;;;5051207;28;20414;-45
2021/07/09 00:21:28;;;;;;;6.95;2.80;;;22.10;99.90;;;;;;5051688;28;20052;-45
2021/07/09 00:24:33;;;;;;;9.55;3.28;;;22.10;99.90;;;;;;5051874;28;20037;-45
2021/07/09 00:27:37;;;;;;;8.77;3.00;;;22.00;99.90;;;;;;5065758;28;20036;-46
2021/07/09 00:30:41;;;;;;;6.97;3.15;;;21.90;99.90;;;;;;5058484;28;20040;-45
2021/07/09 00:33:46;;;;;;;10.57;3.40;;;21.80;99.90;;;;;;5067534;28;20099;-45
2021/07/09 00:36:50;;;;;;;5.78;2.95;;;21.70;99.90;;;;;;5051413;28;20044;-45
2021/07/09 00:39:54;;;;;;;4.88;2.70;;;21.60;99.90;;;;;;5051085;28;20040;-44
2021/07/09 00:42:58;;;;;;;7.32;2.85;;;21.60;99.90;;;;;;5060616;28;20384;-45
2021/07/09 00:46:03;;;;;;;11.23;3.33;;;21.60;99.90;;;;;;5071085;28;20808;-45
2021/07/09 00:49:10;;;;;;;6.93;3.55;;;21.50;99.90;;;;;;5070741;28;20035;-45
2021/07/09 00:52:15;;;;;;;6.07;3.05;;;21.50;99.90;;;;;;5070540;28;20036;-45
2021/07/09 00:55:19;;;;;;;9.10;2.92;;;21.40;99.90;;;;;;5070858;28;20040;-45
2021/07/09 00:58:24;;;;;;;10.77;3.20;;;21.30;99.90;;;;;;5070700;28;20032;-45
2021/07/09 01:01:28;;;;;;;10.85;2.80;;;21.20;99.90;;;;;;5030712;28;20234;-48
2021/07/09 01:04:33;;;;;;;8.63;2.92;;;21.10;99.90;;;;;;5030724;28;20064;-45
2021/07/09 01:07:38;;;;;;;8.48;2.50;;;21.10;99.90;;;;;;5030603;28;20609;-45
2021/07/09 01:10:43;;;;;;;7.03;2.45;;;21.00;99.90;;;;;;5030183;28;20049;-45
2021/07/09 01:13:47;;;;;;;5.85;3.03;;;21.00;99.90;;;;;;5030476;28;20034;-47
2021/07/09 01:16:51;;;;;;;8.60;2.90;;;21.00;99.90;;;;;;5030426;28;20033;-46
2021/07/09 01:19:56;;;;;;;3.83;2.53;;;21.00;99.90;;;;;;5030608;28;20040;-45
2021/07/09 01:23:02;;;;;;;5.78;2.47;;;21.00;99.90;;;;;;5030395;28;20044;-45
2021/07/09 01:26:08;;;;;;;8.80;2.50;;;21.00;99.90;;;;;;5029570;28;20060;-45
2021/07/09 01:29:14;;;;;;;5.97;2.70;;;21.00;99.90;;;;;;5029754;28;20044;-45
2021/07/09 01:32:18;;;;;;;13.80;2.83;;;21.00;99.90;;;;;;5030085;28;20042;-45
2021/07/09 01:35:24;;;;;;;14.20;2.42;;;20.90;99.90;;;;;;5068614;28;20043;-47
2021/07/09 01:38:28;;;;;;;11.15;2.78;;;20.90;99.90;;;;;;5070028;28;20047;-45
2021/07/09 01:41:33;;;;;;;6.82;2.13;;;20.80;99.90;;;;;;5069431;28;20048;-44
2021/07/09 01:44:39;;;;;;;9.30;3.00;;;20.80;99.90;;;;;;5069757;28;20414;-48
2021/07/09 01:47:44;;;;;;;6.47;2.40;;;20.80;99.90;;;;;;5069695;28;20155;-45
2021/07/09 01:50:49;;;;;;;5.35;2.00;;;20.70;99.90;;;;;;5069445;28;20119;-44
2021/07/09 01:53:52;;;;;;;4.10;2.13;;;20.70;99.90;;;;;;5069717;28;20032;-45
2021/07/09 01:56:56;;;;;;;6.82;2.17;;;20.60;99.90;;;;;;5069861;28;20039;-45
2021/07/09 02:00:08;;;;;;;5.43;2.63;;;20.60;99.90;;;;;;5069471;28;20044;-44
2021/07/09 02:03:13;;;;;;;13.70;2.67;;;20.50;99.90;;;;;;5069444;28;20047;-45
2021/07/09 02:06:17;;;;;;;6.25;2.05;;;20.50;99.90;;;;;;5069574;28;20047;-45
2021/07/09 02:09:21;;;;;;;7.70;2.55;;;20.40;99.90;;;;;;5069527;28;20402;-46
2021/07/09 02:12:28;;;;;;;8.57;2.75;;;20.40;99.90;;;;;;5069498;28;20048;-45
2021/07/09 02:15:35;;;;;;;5.80;1.98;;;20.40;99.90;;;;;;5069243;28;20031;-44
2021/07/09 02:18:39;;;;;;;11.75;2.28;;;20.40;99.90;;;;;;5069342;28;20051;-44
2021/07/09 02:21:47;;;;;;;7.72;2.10;;;20.30;99.90;;;;;;5068997;28;20426;-45
2021/07/09 02:24:51;;;;;;;10.55;2.33;;;20.30;99.90;;;;;;5069666;28;20036;-43
2021/07/09 02:27:56;;;;;;;6.50;2.25;;;20.30;99.90;;;;;;5069570;28;20398;-47
2021/07/09 02:31:00;;;;;;;6.07;2.00;;;20.20;99.90;;;;;;5068881;28;20036;-44
2021/07/09 02:34:04;;;;;;;8.55;2.40;;;20.20;99.90;;;;;;5060818;28;20037;-45
2021/07/09 02:37:11;;;;;;;8.63;2.20;;;20.20;99.90;;;;;;5049371;28;20117;-45
2021/07/09 02:40:18;;;;;;;6.55;2.65;;;20.20;99.90;;;;;;5050384;28;20066;-45
2021/07/09 02:43:22;;;;;;;8.82;2.80;;;20.20;99.90;;;;;;5053398;28;20041;-44
2021/07/09 02:46:26;;;;;;;5.45;2.10;;;20.10;99.90;;;;;;5053346;28;20063;-44
2021/07/09 02:49:30;;;;;;;7.45;2.22;;;20.20;99.90;;;;;;5053323;28;20388;-45
2021/07/09 02:52:35;;;;;;;9.45;1.98;;;20.20;99.90;;;;;;5052838;28;20037;-46
2021/07/09 02:55:39;;;;;;;8.50;2.33;;;20.30;99.90;;;;;;5053372;28;20049;-45
2021/07/09 02:58:43;;;;;;;8.55;2.28;;;20.30;99.90;;;;;;5052747;28;20036;-45
2021/07/09 03:01:48;;;;;;;7.05;2.28;;;20.30;99.90;;;;;;5052035;28;20040;-45
2021/07/09 03:04:52;;;;;;;5.32;2.30;;;20.30;99.90;;;;;;5053020;28;20048;-45
2021/07/09 03:07:56;;;;;;;9.75;2.58;;;20.30;99.90;;;;;;5052027;28;20411;-45
2021/07/09 03:11:00;;;;;;;7.35;2.67;;;20.30;99.90;;;;;;5052680;28;20045;-45
2021/07/09 03:14:07;;;;;;;18.08;4.22;;;20.20;99.90;;;;;;5052184;28;20029;-45
2021/07/09 03:17:10;;;;;;;10.57;3.50;;;20.20;99.90;;;;;;5053088;28;20417;-45
2021/07/09 03:20:15;;;;;;;13.40;3.05;;;20.10;99.90;;;;;;5052762;28;20046;-44
2021/07/09 03:23:19;;;;;;;8.70;3.42;;;20.00;99.90;;;;;;5052771;28;20048;-45
2021/07/09 03:26:23;;;;;;;10.85;3.58;;;20.00;99.90;;;;;;5052422;28;20041;-45
2021/07/09 03:29:26;;;;;;;8.73;2.67;;;19.90;99.90;;;;;;5052641;28;20602;-45
2021/07/09 03:32:31;;;;;;;8.70;2.50;;;19.80;99.90;;;;;;5052205;28;20037;-45
2021/07/09 03:35:36;;;;;;;6.97;2.35;;;19.80;99.90;;;;;;5032623;28;20045;-44
2021/07/09 03:38:41;;;;;;;6.63;2.65;;;19.70;99.90;;;;;;5032249;28;20049;-45
2021/07/09 03:41:45;;;;;;;13.70;2.95;;;19.60;99.90;;;;;;5031939;28;20075;-45
2021/07/09 03:44:49;;;;;;;13.40;2.70;;;19.50;99.90;;;;;;5032420;28;20044;-44
2021/07/09 03:47:53;;;;;;;7.13;2.70;;;19.50;99.90;;;;;;5031280;28;20044;-45
2021/07/09 03:50:57;;;;;;;14.43;3.35;;;19.50;99.90;;;;;;5032014;28;20044;-44
2021/07/09 03:54:01;;;;;;;8.70;2.33;;;19.50;99.90;;;;;;5032366;28;20044;-43
2021/07/09 03:57:05;;;;;;;16.38;2.53;;;19.50;99.90;;;;;;5032149;28;20240;-43
2021/07/09 04:00:11;;;;;;;10.80;2.70;;;19.50;99.90;;;;;;5031945;28;20048;-43
2021/07/09 04:03:18;;;;;;;13.57;3.70;;;19.60;99.90;;;;;;5031506;28;20044;-42
2021/07/09 04:06:22;;;;;;;15.63;3.40;;;19.70;99.90;;;;;;5030742;28;20044;-43
2021/07/09 04:09:26;;;;;;;21.15;3.92;;;19.70;99.90;;;;;;5031743;28;20039;-44
2021/07/09 04:12:31;;;;;;;13.23;3.70;;;19.70;99.90;;;;;;5031853;28;20040;-42
2021/07/09 04:15:37;;;;;;;9.98;3.13;;;19.70;99.90;;;;;;5031563;28;20040;-43
2021/07/09 04:18:42;;;;;;;9.32;4.10;;;19.70;99.90;;;;;;5031692;28;20052;-45
2021/07/09 04:21:46;;;;;;;18.98;4.60;;;19.80;99.90;;;;;;5031146;28;20049;-42
2021/07/09 04:24:50;;;;;;;14.40;5.00;;;19.90;99.90;;;;;;5031548;28;20550;-43
2021/07/09 04:27:54;;;;;;;14.52;3.92;;;19.90;99.90;;;;;;5031507;28;20045;-43
2021/07/09 04:30:58;;;;;;;13.38;3.00;;;20.00;99.90;;;;;;5030918;28;20044;-45
2021/07/09 04:34:02;;;;;;;10.35;2.95;;;20.00;99.90;;;;;;5047879;28;20051;-44
2021/07/09 04:37:08;;;;;;;8.75;2.80;;;20.10;99.90;;;;;;5071232;28;20558;-45
2021/07/09 04:40:15;;;;;;;13.43;3.30;;;20.10;99.90;;;;;;5070951;28;20052;-46
2021/07/09 04:43:19;;;;;;;10.82;3.90;;;20.10;99.90;;;;;;5070869;28;20047;-45
2021/07/09 04:46:24;;;;;;;14.85;3.00;;;20.30;99.90;;;;;;5071527;28;20052;-47
2021/07/09 04:49:28;;;;;;;13.10;2.90;;;21.50;99.90;;;;;;5071412;28;20044;-45
2021/07/09 04:52:33;;;;;;;14.23;4.20;;;23.80;99.90;;;;;;5070872;28;20047;-44
2021/07/09 04:55:36;;;;;;;16.73;3.80;;;25.90;99.90;;;;;;5071321;28;20048;-45
2021/07/09 04:58:40;;;;;;;17.75;4.15;;;26.80;99.70;;;;;;5071140;28;20515;-45
2021/07/09 05:01:44;;;;;;;12.35;2.90;;;28.00;98.50;;;;;;5070846;28;20055;-45
2021/07/09 05:04:48;;;;;;;10.13;2.80;;;29.40;96.50;;;;;;5054736;28;20052;-43
2021/07/09 05:07:53;;;;;;;17.13;3.17;;;30.40;94.60;;;;;;5047283;28;20052;-44
2021/07/09 05:10:57;;;;;;;15.63;2.90;;;30.70;93.50;;;;;;5050924;28;20052;-44
2021/07/09 05:14:02;;;;;;;11.82;2.85;;;30.30;92.60;;;;;;5049643;28;20048;-44
2021/07/09 05:17:06;;;;;;;15.32;2.80;;;29.10;93.80;;;;;;5031051;28;20056;-44
2021/07/09 05:20:11;;;;;;;16.73;3.67;;;29.70;93.90;;;;;;5038729;28;20100;-45
2021/07/09 05:23:15;;;;;;;17.38;4.82;;;30.70;93.00;;;;;;5050233;28;20048;-44
2021/07/09 05:26:19;;;;;;;13.45;3.10;;;31.50;92.50;;;;;;5030469;28;20056;-44
2021/07/09 05:29:23;;;;;;;9.63;2.55;;;32.00;91.30;;;;;;5030431;28;20502;-44
2021/07/09 05:32:28;;;;;;;5.35;2.22;;;27.90;92.60;;;;;;5030114;28;20052;-44
2021/07/09 05:35:36;;;;;;;8.18;2.95;;;27.00;95.50;;;;;;5030028;28;20056;-43
2021/07/09 05:38:40;;;;;;;4.90;2.00;;;26.00;96.70;;;;;;5030288;28;20524;-44
2021/07/09 05:41:44;;;;;;;8.52;2.53;;;26.40;96.90;;;;;;5035878;28;20113;-43
2021/07/09 05:44:47;;;;;;;8.63;2.40;;;28.50;95.40;;;;;;5029825;28;20407;-43
2021/07/09 05:47:51;;;;;;;7.63;2.13;;;30.30;93.70;;;;;;5030186;28;20048;-44
2021/07/09 05:50:55;;;;;;;13.27;3.85;;;31.60;91.90;;;;;;5029233;28;20049;-44
2021/07/09 05:53:59;;;;;;;13.95;3.00;;;32.10;91.30;;;;;;5035767;28;20052;-44
2021/07/09 05:57:04;;;;;;;11.10;2.78;;;32.90;90.30;;;;;;5036836;28;20048;-45
2021/07/09 06:00:10;;;;;;;8.50;2.55;;;33.60;88.00;;;;;;5029596;28;20044;-44
2021/07/09 06:03:14;;;;;;;8.23;2.60;;;34.20;86.30;;;;;;5029047;28;20041;-44
2021/07/09 06:06:20;;;;;;;11.90;2.70;;;34.60;84.80;;;;;;5038786;28;20041;-44
2021/07/09 06:09:24;;;;;;;14.40;2.35;;;34.80;83.20;;;;;;5041408;28;20399;-44
2021/07/09 06:12:28;;;;;;;16.48;2.90;;;34.90;82.50;;;;;;5028937;28;20044;-45
2021/07/09 06:15:32;;;;;;;14.68;2.85;;;34.50;82.30;;;;;;5028660;28;20060;-44
2021/07/09 06:18:36;;;;;;;14.05;2.67;;;34.00;81.50;;;;;;5041256;28;20055;-44
2021/07/09 06:21:41;;;;;;;8.02;2.20;;;32.90;82.00;;;;;;5048739;28;20048;-45
2021/07/09 06:24:44;;;;;;;8.73;2.25;;;31.30;86.50;;;;;;5049051;28;20559;-43
2021/07/09 06:27:50;;;;;;;5.43;2.08;;;31.80;85.80;;;;;;5041851;28;20051;-44
2021/07/09 06:30:54;;;;;;;12.10;2.63;;;31.30;86.50;;;;;;5044115;28;20033;-46
2021/07/09 06:33:58;;;;;;;11.75;2.58;;;31.50;86.70;;;;;;5056627;28;20044;-44
2021/07/09 06:37:03;;;;;;;10.88;2.45;;;32.70;85.10;;;;;;5037127;28;20511;-44
2021/07/09 06:40:09;;;;;;;12.63;3.50;;;33.10;83.30;;;;;;5029220;28;20072;-44
2021/07/09 06:43:14;;;;;;;31.58;3.50;;;33.80;81.60;;;;;;5034338;28;20052;-44
2021/07/09 06:46:18;;;;;;;12.52;2.42;;;34.40;80.40;;;;;;5039804;28;20048;-47
2021/07/09 06:49:22;;;;;;;10.63;2.38;;;34.90;79.30;;;;;;5034560;28;20060;-45
2021/07/09 06:52:26;;;;;;;12.23;2.50;;;35.20;78.10;;;;;;5028014;28;20447;-44
2021/07/09 06:55:30;;;;;;;10.65;2.40;;;35.10;77.90;;;;;;5028478;28;20037;-44
2021/07/09 06:58:33;;;;;;;6.50;1.88;;;34.70;77.70;;;;;;5029385;28;20721;-45
2021/07/09 07:01:37;;;;;;;16.27;2.30;;;34.80;77.80;;;;;;5035172;28;20048;-45
2021/07/09 07:04:41;;;;;;;13.70;2.22;;;35.50;77.20;;;;;;5047994;28;20044;-45
2021/07/09 07:07:46;;;;;;;11.75;2.60;;;35.40;77.70;;;;;;5045453;28;20053;-45
2021/07/09 07:10:54;;;;;;;11.45;2.10;;;35.70;76.40;;;;;;5032304;28;20113;-46
2021/07/09 07:13:58;;;;;;;16.35;2.58;;;36.10;75.70;;;;;;5045274;28;20044;-45
2021/07/09 07:17:03;;;;;;;8.25;1.90;;;36.60;74.90;;;;;;5048354;28;20052;-46
2021/07/09 07:20:07;;;;;;;7.10;2.05;;;37.00;73.80;;;;;;5048563;28;20052;-47
2021/07/09 07:23:17;;;;;;;13.02;2.38;;;35.60;75.30;;;;;;5033968;28;20121;-45
2021/07/09 07:26:21;;;;;;;18.35;2.90;;;34.90;76.50;;;;;;5030256;28;20048;-45
2021/07/09 07:29:26;;;;;;;9.02;2.25;;;35.60;75.80;;;;;;5052389;28;20048;-44
2021/07/09 07:32:30;;;;;;;16.75;3.08;;;34.70;76.20;;;;;;5046890;28;20033;-44
2021/07/09 07:35:34;;;;;;;14.20;2.47;;;33.10;78.90;;;;;;5052128;28;20040;-44
2021/07/09 07:38:38;;;;;;;15.15;2.72;;;32.60;80.00;;;;;;5033349;28;20048;-44
2021/07/09 07:41:42;;;;;;;17.45;2.38;;;33.60;79.90;;;;;;5032092;28;20047;-44
2021/07/09 07:44:47;;;;;;;5.85;1.80;;;34.80;76.50;;;;;;5041508;28;20133;-45
2021/07/09 07:47:52;;;;;;;8.90;2.25;;;36.30;75.20;;;;;;5032150;28;20037;-44
2021/07/09 07:50:56;;;;;;;7.13;2.10;;;36.80;73.80;;;;;;5032426;28;20411;-46
2021/07/09 07:54:00;;;;;;;11.82;2.78;;;38.00;72.40;;;;;;5043609;28;20044;-47
2021/07/09 07:57:05;;;;;;;18.30;2.80;;;37.40;71.50;;;;;;5052033;28;20044;-46
2021/07/09 08:00:10;;;;;;;10.60;2.00;;;35.50;74.20;;;;;;5051704;28;20044;-45
2021/07/09 08:03:16;;;;;;;10.07;2.90;;;34.50;75.10;;;;;;5041948;28;20048;-45
2021/07/09 08:06:21;;;;;;;12.25;2.25;;;33.30;77.00;;;;;;5038923;28;20506;-45
2021/07/09 08:09:25;;;;;;;7.65;2.33;;;32.60;79.00;;;;;;5039481;28;20048;-45
2021/07/09 08:12:29;;;;;;;5.65;1.83;;;33.00;78.40;;;;;;5040729;28;20026;-44
2021/07/09 08:15:34;;;;;;;11.98;2.47;;;35.90;75.20;;;;;;5038227;28;20056;-45
2021/07/09 08:18:38;;;;;;;8.55;1.70;;;35.50;73.60;;;;;;5033937;28;20044;-45
2021/07/09 08:21:42;;;;;;;9.50;2.38;;;34.80;73.10;;;;;;5040589;28;20045;-44
2021/07/09 08:24:46;;;;;;;13.75;2.25;;;33.60;75.50;;;;;;5030987;28;20459;-44
2021/07/09 08:27:50;;;;;;;6.75;2.13;;;32.90;77.10;;;;;;5031319;28;20052;-44
2021/07/09 08:30:54;;;;;;;10.23;1.95;;;33.40;77.40;;;;;;5031248;28;20104;-45
2021/07/09 08:33:58;;;;;;;9.52;1.77;;;35.70;71.40;;;;;;5046872;28;20406;-47
2021/07/09 08:37:03;;;;;;;9.00;2.05;;;36.10;68.80;;;;;;5071627;28;20025;-47
2021/07/09 08:40:08;;;;;;;9.40;2.08;;;37.00;70.80;;;;;;5046874;28;20404;-45
2021/07/09 08:43:12;;;;;;;6.30;1.88;;;35.40;71.00;;;;;;5041281;28;20041;-44
2021/07/09 08:46:17;;;;;;;9.02;1.45;;;32.50;73.20;;;;;;5050984;28;20033;-44
2021/07/09 08:49:22;;;;;;;8.48;1.63;;;35.60;71.10;;;;;;5050638;28;20381;-45
2021/07/09 08:52:27;;;;;;;12.00;1.70;;;36.20;68.90;;;;;;5034224;28;20028;-46
2021/07/09 08:55:31;;;;;;;11.27;2.03;;;37.50;68.30;;;;;;5039240;28;20032;-44
2021/07/09 08:58:35;;;;;;;21.45;2.83;;;35.60;70.80;;;;;;5048956;28;20044;-45
2021/07/09 09:01:53;;;;;;;9.57;2.42;;;34.20;73.00;;;;;;5044700;28;20040;-44
2021/07/09 09:04:57;;;;;;;9.43;1.60;;;33.10;75.10;;;;;;5037990;28;20067;-45
2021/07/09 09:08:06;;;;;;;6.78;1.42;;;35.60;71.40;;;;;;5038262;28;20623;-46
2021/07/09 09:11:11;;;;;;;4.38;1.30;;;38.90;66.40;;;;;;5031233;28;20384;-45
2021/07/09 09:14:23;;;;;;;5.82;1.98;;;40.40;62.10;;;;;;5045826;28;20054;-47
2021/07/09 09:17:33;;;;;;;14.68;2.08;;;42.10;60.00;;;;;;5045042;28;20048;-46
2021/07/09 09:20:38;;;;;;;4.03;1.20;;;38.60;62.10;;;;;;5034462;28;20039;-45
2021/07/09 09:23:49;;;;;;;3.72;1.15;;;37.90;62.80;;;;;;5048345;28;20059;-49
2021/07/09 09:26:53;;;;;;;5.45;1.58;;;39.50;61.90;;;;;;5030226;28;20033;-45
2021/07/09 09:30:27;;;;;;;6.95;1.15;;;41.10;59.00;;;;;;5031199;28;20040;-45
2021/07/09 09:33:35;;;;;;;6.43;1.35;;;41.50;58.00;;;;;;5038557;28;20040;-45
2021/07/09 09:36:41;;;;;;;6.38;1.40;;;43.80;55.60;;;;;;5070038;28;20450;-46
2021/07/09 09:39:48;;;;;;;7.45;1.50;;;43.20;54.70;;;;;;5035581;28;20522;-46
2021/07/09 09:42:53;;;;;;;4.47;1.30;;;40.80;58.30;;;;;;5029952;28;20042;-47
2021/07/09 09:45:59;;;;;;;9.70;2.05;;;38.00;57.70;;;;;;5029731;28;20038;-47
2021/07/09 09:49:05;;;;;;;6.25;1.42;;;39.40;58.60;;;;;;5036725;28;20748;-45
2021/07/09 09:52:09;;;;;;;3.15;1.00;;;41.60;57.10;;;;;;5035727;28;20048;-46
2021/07/09 09:55:23;;;;;;;3.35;0.90;;;38.20;55.20;;;;;;5029882;28;20044;-44
2021/07/09 09:58:27;;;;;;;3.38;0.80;;;37.00;58.40;;;;;;5041602;28;20045;-46
2021/07/09 10:01:31;;;;;;;4.70;1.00;;;38.20;56.30;;;;;;5039379;28;20040;-45
2021/07/09 10:04:35;;;;;;;3.05;1.05;;;40.30;55.20;;;;;;5047870;28;20040;-47
2021/07/09 10:07:40;;;;;;;4.35;0.70;;;42.90;53.90;;;;;;5029342;28;20045;-47
2021/07/09 10:10:45;;;;;;;4.28;0.88;;;44.40;52.90;;;;;;5039590;28;20717;-47
2021/07/09 10:13:50;;;;;;;7.40;0.90;;;43.60;51.10;;;;;;5034253;28;20048;-45
2021/07/09 10:17:01;;;;;;;2.60;1.05;;;38.10;54.40;;;;;;5039379;28;20056;-45
2021/07/09 10:20:06;;;;;;;3.22;1.00;;;37.40;55.90;;;;;;5030501;28;20037;-46
2021/07/09 10:23:15;;;;;;;4.78;1.10;;;36.90;57.50;;;;;;5035112;28;20047;-46
2021/07/09 10:26:19;;;;;;;3.72;1.40;;;40.80;56.30;;;;;;5049132;28;20052;-44
2021/07/09 10:29:28;;;;;;;4.95;1.05;;;34.40;58.30;;;;;;5035511;28;20059;-47
2021/07/09 10:32:53;;;;;;;7.50;0.95;;;37.10;58.90;;;;;;5029397;28;20037;-45
2021/07/09 10:35:59;;;;;;;4.72;1.30;;;40.80;56.70;;;;;;5039839;28;20519;-45
2021/07/09 10:39:04;;;;;;;7.55;1.38;;;43.20;54.90;;;;;;5036769;28;20513;-45
2021/07/09 10:42:17;;;;;;;4.82;1.10;;;44.40;53.30;;;;;;5049005;28;20527;-45
2021/07/09 10:45:25;;;;;;;3.55;1.10;;;45.40;51.80;;;;;;5047375;28;20048;-45
2021/07/09 10:48:37;;;;;;;3.67;0.90;;;44.20;50.30;;;;;;5049440;28;20052;-45
2021/07/09 10:51:48;;;;;;;7.25;1.20;;;44.70;50.60;;;;;;5049316;28;20039;-46
2021/07/09 10:54:59;;;;;;;7.43;1.25;;;43.90;51.50;;;;;;5047483;28;20036;-45
2021/07/09 10:58:34;;;;;;;5.72;0.95;;;37.80;55.40;;;;;;5049094;28;20044;-45
2021/07/09 11:01:39;;;;;;;2.70;1.05;;;34.90;57.10;;;;;;5050846;28;20056;-44
2021/07/09 11:04:45;;;;;;;3.75;1.00;;;33.20;58.70;;;;;;5040133;28;20068;-43
2021/07/09 11:07:50;;;;;;;4.25;1.52;;;35.30;58.10;;;;;;5032901;28;20060;-44
2021/07/09 11:10:56;;;;;;;2.10;0.80;;;35.00;57.90;;;;;;5032807;28;20044;-44
2021/07/09 11:14:11;;;;;;;5.47;1.20;;;38.00;55.10;;;;;;5036868;28;20048;-45
2021/07/09 11:17:18;;;;;;;6.15;1.10;;;40.60;54.20;;;;;;5052529;28;20040;-45
2021/07/09 11:20:32;;;;;;;5.97;1.00;;;41.40;53.10;;;;;;5053220;28;20052;-45
2021/07/09 11:23:36;;;;;;;6.65;1.15;;;40.90;53.10;;;;;;5052308;28;20071;-45
2021/07/09 11:26:43;;;;;;;2.65;0.82;;;41.30;52.50;;;;;;5033042;28;20044;-45
2021/07/09 11:29:48;;;;;;;5.05;0.70;;;37.70;53.90;;;;;;5031960;28;20056;-44
2021/07/09 11:32:54;;;;;;;2.75;0.73;;;34.50;54.60;;;;;;5032668;28;20045;-44
2021/07/09 11:36:16;;;;;;;1.77;0.80;;;33.60;55.10;;;;;;5033582;28;20446;-46
2021/07/09 11:39:26;;;;;;;2.72;0.70;;;32.50;56.40;;;;;;5032758;28;20053;-44
2021/07/09 11:42:32;;;;;;;7.83;1.00;;;33.20;56.40;;;;;;5032478;28;20048;-47
2021/07/09 11:45:37;;;;;;;7.70;0.85;;;35.30;55.40;;;;;;5037229;28;20036;-47
2021/07/09 11:48:42;;;;;;;1.20;0.57;;;37.50;53.90;;;;;;5032627;28;20048;-44
2021/07/09 11:51:53;;;;;;;3.70;0.80;;;37.40;50.50;;;;;;5043587;28;20048;-44
2021/07/09 11:55:00;;;;;;;0.73;0.43;;;35.60;51.70;;;;;;5037839;28;20466;-44
2021/07/09 11:58:05;;;;;;;4.35;0.75;;;36.70;51.70;;;;;;5034273;28;20041;-44
2021/07/09 12:01:17;;;;;;;3.33;0.60;;;37.80;51.60;;;;;;5037927;28;20045;-45
2021/07/09 12:04:32;;;;;;;2.55;0.60;;;36.10;51.60;;;;;;5040970;28;20443;-44
2021/07/09 12:07:41;;;;;;;2.00;0.50;;;36.10;51.70;;;;;;5036814;28;20060;-44
2021/07/09 12:10:45;;;;;;;3.22;0.65;;;37.00;52.40;;;;;;5042664;28;20037;-47
2021/07/09 12:14:06;;;;;;;2.17;0.60;;;37.10;52.00;;;;;;5031203;28;20056;-44
2021/07/09 12:17:14;;;;;;;1.67;0.73;;;35.30;53.40;;;;;;5044120;28;20041;-45
2021/07/09 12:20:20;;;;;;;3.22;1.10;;;36.40;52.10;;;;;;5048450;28;20044;-44
2021/07/09 12:23:26;;;;;;;2.33;0.57;;;36.70;51.70;;;;;;5043238;28;20044;-44
2021/07/09 12:26:30;;;;;;;5.53;0.77;;;37.30;51.00;;;;;;5035264;28;20494;-44
2021/07/09 12:29:35;;;;;;;1.85;0.43;;;37.10;51.50;;;;;;5031097;28;20049;-47
2021/07/09 12:32:51;;;;;;;1.83;0.60;;;34.00;52.00;;;;;;5036385;28;20537;-44
2021/07/09 12:36:11;;;;;;;5.28;0.80;;;35.20;52.40;;;;;;5031333;28;20506;-44
2021/07/09 12:39:23;;;;;;;1.75;0.70;;;36.10;51.70;;;;;;5031255;28;20105;-46
2021/07/09 12:42:33;;;;;;;5.65;0.82;;;37.20;50.90;;;;;;5036292;28;20040;-51
2021/07/09 12:45:38;;;;;;;1.55;0.50;;;37.00;52.00;;;;;;5048527;28;20040;-44
2021/07/09 12:48:44;;;;;;;2.65;0.60;;;36.70;50.40;;;;;;5040219;28;20052;-46
2021/07/09 12:51:49;;;;;;;1.45;0.50;;;35.70;51.20;;;;;;5042553;28;20041;-46
2021/07/09 12:54:53;;;;;;;1.15;0.45;;;34.60;51.90;;;;;;5038569;28;20040;-46
2021/07/09 12:58:10;;;;;;;8.40;0.73;;;33.60;51.10;;;;;;5040574;28;20044;-44
2021/07/09 13:01:15;;;;;;;1.55;0.82;;;33.40;52.80;;;;;;5040004;28;20048;-45
2021/07/09 13:04:21;;;;;;;1.38;0.55;;;33.40;54.30;;;;;;5042169;28;20439;-46
2021/07/09 13:07:25;;;;;;;2.78;0.50;;;34.70;54.10;;;;;;5042174;28;20518;-44
2021/07/09 13:10:30;;;;;;;1.40;0.60;;;35.20;52.60;;;;;;5035570;28;20041;-44
2021/07/09 13:13:36;;;;;;;3.20;0.57;;;35.70;52.10;;;;;;5042517;28;20032;-45
2021/07/09 13:16:46;;;;;;;3.80;0.52;;;35.20;51.20;;;;;;5041003;28;20040;-45
2021/07/09 13:20:07;;;;;;;3.47;0.60;;;34.80;51.70;;;;;;5041347;28;20056;-46
2021/07/09 13:23:15;;;;;;;2.45;0.38;;;34.60;50.70;;;;;;5041770;28;20044;-45
2021/07/09 13:26:20;;;;;;;1.00;0.30;;;32.90;51.10;;;;;;5041901;28;20051;-44
2021/07/09 13:29:27;;;;;;;1.02;0.32;;;33.70;50.50;;;;;;5043111;28;20056;-44
2021/07/09 13:32:37;;;;;;;1.13;0.43;;;34.20;49.10;;;;;;5041202;28;20407;-44
2021/07/09 13:35:47;;;;;;;8.43;0.60;;;34.90;49.40;;;;;;5040527;28;20047;-46
2021/07/09 13:38:51;;;;;;;4.65;0.68;;;34.90;50.00;;;;;;5038649;28;20040;-44
2021/07/09 13:41:55;;;;;;;0.95;0.40;;;34.50;49.30;;;;;;5044868;28;20040;-44
2021/07/09 13:45:03;;;;;;;2.88;0.60;;;31.40;52.30;;;;;;5042121;28;21789;-45
2021/07/09 13:48:08;;;;;;;2.40;0.70;;;32.60;52.80;;;;;;5040671;28;20049;-46
2021/07/09 13:51:14;;;;;;;1.63;0.60;;;33.50;52.00;;;;;;5040370;28;20040;-45
2021/07/09 13:54:18;;;;;;;4.32;0.88;;;33.10;52.60;;;;;;5041757;28;20067;-48
2021/07/09 13:57:23;;;;;;;0.73;0.50;;;33.70;53.20;;;;;;5040152;28;20442;-45
2021/07/09 14:00:28;;;;;;;2.78;0.43;;;34.00;51.50;;;;;;5039115;28;20040;-45
2021/07/09 14:03:34;;;;;;;1.67;0.47;;;34.30;51.20;;;;;;5040820;28;20048;-45
2021/07/09 14:06:39;;;;;;;4.43;0.60;;;34.60;50.70;;;;;;5041632;28;20040;-45
2021/07/09 14:09:43;;;;;;;2.65;0.60;;;32.60;50.30;;;;;;5044813;28;20052;-47
2021/07/09 14:12:48;;;;;;;1.88;0.35;;;33.20;51.30;;;;;;5043557;28;20549;-47
2021/07/09 14:15:53;;;;;;;4.88;0.40;;;32.20;50.30;;;;;;5043771;28;20055;-45
2021/07/09 14:18:57;;;;;;;2.35;0.68;;;31.80;51.90;;;;;;5039781;28;20526;-45
2021/07/09 14:22:05;;;;;;;7.88;1.02;;;31.50;50.70;;;;;;5042934;28;20052;-45
2021/07/09 14:25:12;;;;;;;3.63;0.73;;;32.10;54.00;;;;;;5040625;28;20064;-47
2021/07/09 14:28:18;;;;;;;4.40;0.60;;;32.70;52.30;;;;;;5041184;28;20044;-46
2021/07/09 14:31:22;;;;;;;8.85;0.90;;;32.90;52.20;;;;;;5042353;28;20049;-44
2021/07/09 14:34:26;;;;;;;15.32;1.95;;;32.90;52.20;;;;;;5043567;28;20499;-45
2021/07/09 14:37:30;;;;;;;8.68;0.70;;;33.10;51.70;;;;;;5039554;28;20399;-45
2021/07/09 14:40:35;;;;;;;4.70;0.60;;;33.40;50.80;;;;;;5040506;28;20040;-48
2021/07/09 14:43:40;;;;;;;8.65;0.73;;;33.50;51.80;;;;;;5040730;28;20040;-45
2021/07/09 14:46:44;;;;;;;7.60;1.00;;;33.50;51.80;;;;;;5042821;28;20048;-46
2021/07/09 14:49:48;;;;;;;1.23;0.47;;;33.20;51.40;;;;;;5041031;28;20415;-45
2021/07/09 14:52:53;;;;;;;8.23;0.70;;;33.00;51.10;;;;;;5037258;28;20048;-46
2021/07/09 14:55:58;;;;;;;7.80;0.90;;;33.00;51.00;;;;;;5041910;28;20048;-46
2021/07/09 14:59:05;;;;;;;5.60;0.60;;;33.00;51.80;;;;;;5042883;28;20514;-46
2021/07/09 15:02:09;;;;;;;8.90;0.75;;;32.50;52.20;;;;;;5038040;28;20051;-45
2021/07/09 15:05:15;;;;;;;4.15;0.50;;;31.90;52.80;;;;;;5037505;28;20052;-44
2021/07/09 15:08:19;;;;;;;3.05;0.80;;;32.10;52.30;;;;;;5042471;28;20052;-48
2021/07/09 15:11:22;;;;;;;6.07;0.70;;;32.30;52.60;;;;;;5039408;28;20036;-45
2021/07/09 15:14:26;;;;;;;3.00;0.60;;;32.40;52.80;;;;;;5038885;28;20048;-48
2021/07/09 15:17:30;;;;;;;5.10;1.40;;;32.40;52.80;;;;;;5031611;28;20036;-47
2021/07/09 15:20:35;;;;;;;20.98;1.90;;;32.30;51.20;;;;;;5030959;28;20399;-44
2021/07/09 15:23:40;;;;;;;2.30;0.50;;;30.70;51.00;;;;;;5032347;28;20061;-45
2021/07/09 15:26:44;;;;;;;2.58;0.60;;;31.00;52.70;;;;;;5028719;28;20048;-47
2021/07/09 15:29:48;;;;;;;4.38;1.30;;;31.30;52.50;;;;;;5029195;28;20049;-51
2021/07/09 15:32:52;;;;;;;1.70;0.55;;;31.30;53.00;;;;;;5028442;28;20044;-45
2021/07/09 15:35:56;;;;;;;6.18;0.73;;;31.40;52.30;;;;;;5028829;28;20068;-45
2021/07/09 15:39:01;;;;;;;8.13;0.93;;;31.50;52.50;;;;;;5028699;28;20068;-44
2021/07/09 15:42:05;;;;;;;5.68;2.17;;;31.40;51.90;;;;;;5028454;28;20053;-45
2021/07/09 15:45:10;;;;;;;4.20;0.68;;;31.40;51.50;;;;;;5028839;28;20457;-44
2021/07/09 15:48:13;;;;;;;6.55;0.80;;;31.00;50.80;;;;;;5029994;28;20053;-45
2021/07/09 15:51:19;;;;;;;4.78;1.40;;;31.10;50.70;;;;;;5032040;28;20053;-44
2021/07/09 15:54:23;;;;;;;3.00;0.50;;;31.00;50.20;;;;;;5031963;28;20044;-45
2021/07/09 15:57:28;;;;;;;5.43;0.55;;;30.70;50.10;;;;;;5032280;28;20052;-45
2021/07/09 16:00:34;;;;;;;2.33;0.50;;;30.70;51.00;;;;;;5031019;28;20411;-49
2021/07/09 16:03:38;;;;;;;1.15;0.40;;;30.80;49.90;;;;;;5032160;28;20064;-44